createdAt,value
2022-11-19T00:01:27.708Z,7.32
2022-11-19T00:03:54.156Z,7.60
2022-11-19T00:06:22.838Z,7.85
2022-11-19T00:08:49.253Z,7.45
2022-11-19T00:11:40.664Z,7.70
2022-11-19T00:14:08.012Z,7.35
2022-11-19T00:16:34.363Z,9.27
2022-11-19T00:19:00.384Z,8.60
2022-11-19T00:21:26.168Z,8.70
2022-11-19T00:23:53.964Z,8.95
2022-11-19T00:26:19.822Z,10.40
2022-11-19T00:28:45.599Z,11.38
2022-11-19T00:31:13.849Z,11.10
2022-11-19T00:33:41.468Z,12.85
2022-11-19T00:36:09.949Z,13.52
2022-11-19T00:38:36.347Z,13.50
2022-11-19T00:41:02.632Z,13.68
2022-11-19T00:43:47.158Z,15.43
2022-11-19T00:46:17.851Z,16.33
2022-11-19T00:48:44.590Z,17.27
2022-11-19T00:51:11.294Z,14.82
2022-11-19T00:53:37.222Z,15.65
2022-11-19T00:56:08.813Z,16.38
2022-11-19T00:58:34.856Z,15.40
2022-11-19T01:01:00.784Z,16.02
2022-11-19T01:03:27.115Z,16.23
2022-11-19T01:05:53.159Z,16.20
2022-11-19T01:08:20.333Z,14.27
2022-11-19T01:10:47.205Z,16.02
2022-11-19T01:13:32.936Z,16.02
2022-11-19T01:15:59.321Z,17.35
2022-11-19T01:18:26.702Z,15.48
2022-11-19T01:20:52.990Z,16.48
2022-11-19T01:23:18.873Z,15.70
2022-11-19T01:25:44.714Z,14.88
2022-11-19T01:28:10.582Z,14.15
2022-11-19T01:30:39.805Z,15.77
2022-11-19T01:33:06.523Z,15.70
2022-11-19T01:35:34.094Z,14.75
2022-11-19T01:38:01.021Z,15.50
2022-11-19T01:40:28.383Z,15.93
2022-11-19T01:42:54.638Z,13.05
2022-11-19T01:45:29.366Z,14.48
2022-11-19T01:47:59.160Z,14.37
2022-11-19T01:50:27.085Z,13.15
2022-11-19T01:52:54.082Z,13.38
2022-11-19T01:55:20.280Z,12.75
2022-11-19T01:57:54.845Z,11.80
2022-11-19T02:00:23.999Z,11.77
2022-11-19T02:02:50.323Z,11.68
2022-11-19T02:05:16.561Z,11.52
2022-11-19T02:07:48.699Z,11.38
2022-11-19T02:10:14.503Z,9.10
2022-11-19T02:13:05.545Z,6.57
2022-11-19T02:15:49.587Z,6.47
2022-11-19T02:18:35.044Z,5.85
2022-11-19T02:21:16.420Z,4.75
2022-11-19T02:24:01.015Z,3.80
2022-11-19T02:27:00.888Z,4.47
2022-11-19T02:29:30.203Z,3.88
2022-11-19T02:32:15.362Z,3.83
2022-11-19T02:34:48.082Z,3.83
2022-11-19T02:37:29.708Z,2.97
2022-11-19T02:40:14.678Z,3.30
2022-11-19T02:42:46.622Z,3.33
2022-11-19T02:45:26.130Z,2.95
2022-11-19T02:48:27.274Z,3.55
2022-11-19T02:50:56.956Z,3.10
2022-11-19T02:53:23.251Z,2.67
2022-11-19T02:56:07.697Z,3.05
2022-11-19T02:58:55.338Z,3.08
2022-11-19T03:01:41.907Z,3.15
2022-11-19T03:04:27.694Z,3.20
2022-11-19T03:06:54.781Z,3.10
2022-11-19T03:09:22.284Z,3.42
2022-11-19T03:11:57.829Z,3.47
2022-11-19T03:14:47.833Z,3.17
2022-11-19T03:17:21.601Z,3.25
2022-11-19T03:19:54.277Z,3.25
2022-11-19T03:22:32.327Z,3.80
2022-11-19T03:25:05.329Z,3.53
2022-11-19T03:27:39.064Z,3.45
2022-11-19T03:30:06.084Z,3.85
2022-11-19T03:32:44.612Z,4.72
2022-11-19T03:35:22.189Z,4.60
2022-11-19T03:37:51.902Z,5.05
2022-11-19T03:40:19.638Z,5.60
2022-11-19T03:42:48.877Z,5.55
2022-11-19T03:45:20.042Z,5.88
2022-11-19T03:47:49.442Z,6.55
2022-11-19T03:50:21.059Z,6.20
2022-11-19T03:52:47.036Z,6.82
2022-11-19T03:55:12.975Z,7.45
2022-11-19T03:57:39.403Z,7.57
2022-11-19T04:00:05.988Z,7.95
2022-11-19T04:02:32.123Z,8.00
2022-11-19T04:04:57.875Z,8.65
2022-11-19T04:07:24.122Z,9.30
2022-11-19T04:09:50.068Z,10.10
2022-11-19T04:12:22.053Z,9.40
2022-11-19T04:14:48.304Z,10.90
2022-11-19T04:17:15.313Z,9.70
2022-11-19T04:19:41.231Z,10.57
2022-11-19T04:22:07.551Z,10.18
2022-11-19T04:24:33.426Z,11.10
2022-11-19T04:26:59.640Z,11.65
2022-11-19T04:29:25.424Z,12.02
2022-11-19T04:31:51.203Z,11.88
2022-11-19T04:34:17.179Z,12.23
2022-11-19T04:36:42.978Z,13.18
2022-11-19T04:39:11.605Z,14.50
2022-11-19T04:41:38.662Z,14.68
2022-11-19T04:44:04.902Z,14.75
2022-11-19T04:46:31.061Z,14.80
2022-11-19T04:48:57.297Z,14.50
2022-11-19T04:51:23.359Z,15.05
2022-11-19T04:53:49.712Z,15.02
2022-11-19T04:56:15.933Z,15.27
2022-11-19T04:58:42.149Z,16.73
2022-11-19T05:01:08.131Z,14.98
2022-11-19T05:03:33.957Z,14.93
2022-11-19T05:06:00.032Z,16.25
2022-11-19T05:08:26.337Z,15.40
2022-11-19T05:10:53.186Z,16.90
2022-11-19T05:13:19.722Z,15.18
2022-11-19T05:15:45.956Z,16.40
2022-11-19T05:18:12.906Z,16.58
2022-11-19T05:20:38.810Z,15.25
2022-11-19T05:23:04.883Z,16.33
2022-11-19T05:25:30.695Z,16.17
2022-11-19T05:27:56.503Z,16.30
2022-11-19T05:30:22.502Z,16.27
2022-11-19T05:32:48.327Z,16.67
2022-11-19T05:35:14.215Z,16.13
2022-11-19T05:37:40.017Z,16.77
2022-11-19T05:40:06.585Z,16.77
2022-11-19T05:42:32.480Z,16.10
2022-11-19T05:44:58.331Z,17.35
2022-11-19T05:47:24.096Z,16.60
2022-11-19T05:49:49.900Z,15.23
2022-11-19T05:52:15.652Z,17.98
2022-11-19T05:54:41.446Z,16.20
2022-11-19T05:57:07.256Z,15.77
2022-11-19T05:59:33.048Z,17.08
2022-11-19T06:01:58.890Z,16.85
2022-11-19T06:04:24.687Z,17.17
2022-11-19T06:06:50.455Z,16.80
2022-11-19T06:09:16.225Z,17.38
2022-11-19T06:11:48.016Z,16.05
2022-11-19T06:14:14.647Z,16.13
2022-11-19T06:16:40.434Z,16.27
2022-11-19T06:19:06.332Z,16.17
2022-11-19T06:21:32.102Z,16.35
2022-11-19T06:23:57.865Z,16.85
2022-11-19T06:26:25.197Z,16.02
2022-11-19T06:28:51.324Z,16.33
2022-11-19T06:31:17.402Z,16.02
2022-11-19T06:33:43.267Z,16.45
2022-11-19T06:36:09.402Z,15.57
2022-11-19T06:38:35.305Z,15.93
2022-11-19T06:41:01.226Z,17.13
2022-11-19T06:43:27.067Z,15.35
2022-11-19T06:45:52.895Z,15.40
2022-11-19T06:48:18.661Z,15.77
2022-11-19T06:50:45.249Z,16.27
2022-11-19T06:53:11.615Z,16.83
2022-11-19T06:55:37.716Z,16.73
2022-11-19T06:58:05.159Z,15.85
2022-11-19T07:00:31.814Z,15.75
2022-11-19T07:02:57.824Z,15.23
2022-11-19T07:05:23.674Z,15.65
2022-11-19T07:07:49.686Z,14.10
2022-11-19T07:10:15.932Z,13.40
2022-11-19T07:12:41.812Z,13.15
2022-11-19T07:15:08.120Z,13.55
2022-11-19T07:17:33.966Z,13.77
2022-11-19T07:19:59.917Z,13.18
2022-11-19T07:22:26.802Z,13.48
2022-11-19T07:24:52.701Z,11.75
2022-11-19T07:27:18.555Z,14.60
2022-11-19T07:29:44.416Z,13.52
2022-11-19T07:32:10.221Z,11.18
2022-11-19T07:34:36.066Z,12.68
2022-11-19T07:37:01.815Z,12.65
2022-11-19T07:39:27.682Z,11.60
2022-11-19T07:42:12.336Z,12.52
2022-11-19T07:44:38.175Z,11.57
2022-11-19T07:47:06.528Z,11.43
2022-11-19T07:49:32.571Z,11.65
2022-11-19T07:51:58.591Z,10.65
2022-11-19T07:54:24.589Z,10.93
2022-11-19T07:56:50.586Z,11.00
2022-11-19T07:59:17.004Z,11.20
2022-11-19T08:01:43.423Z,12.73
2022-11-19T08:04:09.423Z,11.52
2022-11-19T08:06:35.272Z,11.75
2022-11-19T08:09:02.572Z,12.38
2022-11-19T08:11:28.976Z,12.55
2022-11-19T08:13:55.300Z,13.32
2022-11-19T08:16:40.517Z,13.65
2022-11-19T08:19:12.566Z,13.45
2022-11-19T08:21:44.312Z,12.75
2022-11-19T08:24:11.224Z,13.88
2022-11-19T08:26:37.990Z,14.85
2022-11-19T08:29:04.954Z,12.98
2022-11-19T08:31:30.800Z,13.50
2022-11-19T08:33:56.986Z,13.27
2022-11-19T08:36:22.736Z,13.32
2022-11-19T08:38:48.540Z,12.98
2022-11-19T08:41:33.174Z,13.07
2022-11-19T08:44:00.886Z,12.75
2022-11-19T08:46:26.866Z,12.85
2022-11-19T08:48:52.660Z,14.20
2022-11-19T08:51:18.972Z,13.27
2022-11-19T08:53:44.802Z,13.43
2022-11-19T08:56:13.963Z,13.18
2022-11-19T08:58:43.709Z,14.20
2022-11-19T09:01:11.328Z,13.52
2022-11-19T09:03:37.455Z,13.05
2022-11-19T09:06:03.698Z,14.40
2022-11-19T09:08:30.147Z,14.23
2022-11-19T09:10:56.362Z,13.00
2022-11-19T09:13:22.546Z,13.48
2022-11-19T09:15:49.542Z,13.20
2022-11-19T09:18:15.641Z,13.38
2022-11-19T09:20:41.447Z,13.75
2022-11-19T09:23:07.241Z,13.43
2022-11-19T09:25:33.137Z,13.55
2022-11-19T09:27:59.210Z,13.35
2022-11-19T09:30:25.591Z,14.13
2022-11-19T09:32:51.632Z,13.85
2022-11-19T09:35:17.719Z,13.20
2022-11-19T09:37:43.910Z,13.05
2022-11-19T09:40:17.778Z,13.90
2022-11-19T09:43:15.817Z,14.80
2022-11-19T09:45:57.766Z,13.98
2022-11-19T09:48:35.153Z,14.30
2022-11-19T09:51:07.632Z,14.60
2022-11-19T09:53:39.847Z,14.02
2022-11-19T09:56:06.401Z,13.90
2022-11-19T09:58:37.647Z,13.48
2022-11-19T10:01:03.625Z,14.20
2022-11-19T10:03:33.411Z,13.88
2022-11-19T10:06:19.014Z,13.35
2022-11-19T10:09:18.480Z,14.25
2022-11-19T10:11:44.255Z,12.13
2022-11-19T10:14:41.337Z,13.00
2022-11-19T10:17:15.989Z,12.02
2022-11-19T10:20:27.817Z,11.73
2022-11-19T10:22:59.543Z,13.32
2022-11-19T10:25:31.533Z,13.95
2022-11-19T10:28:12.112Z,13.45
2022-11-19T10:30:40.259Z,12.75
2022-11-19T10:33:43.359Z,13.63
2022-11-19T10:36:19.060Z,13.48
2022-11-19T10:38:55.099Z,14.10
2022-11-19T10:41:44.859Z,13.90
2022-11-19T10:44:36.810Z,13.15
2022-11-19T10:47:05.035Z,13.48
2022-11-19T10:49:37.053Z,12.85
2022-11-19T10:52:03.017Z,14.13
2022-11-19T10:54:30.690Z,12.85
2022-11-19T10:56:57.993Z,11.95
2022-11-19T10:59:27.004Z,12.77
2022-11-19T11:02:02.738Z,13.40
2022-11-19T11:04:29.699Z,13.10
2022-11-19T11:06:56.871Z,12.65
2022-11-19T11:09:40.286Z,12.57
2022-11-19T11:12:32.276Z,12.68
2022-11-19T11:15:16.205Z,12.50
2022-11-19T11:17:46.211Z,11.95
2022-11-19T11:20:18.344Z,11.38
2022-11-19T11:22:47.725Z,11.68
2022-11-19T11:25:23.619Z,11.70
2022-11-19T11:28:05.116Z,12.18
2022-11-19T11:30:30.964Z,11.68
2022-11-19T11:32:56.805Z,11.38
2022-11-19T11:35:37.873Z,12.02
2022-11-19T11:38:04.816Z,11.63
2022-11-19T11:40:30.895Z,11.95
2022-11-19T11:42:57.319Z,11.45
2022-11-19T11:45:34.481Z,10.88
2022-11-19T11:48:07.124Z,11.13
2022-11-19T11:50:36.517Z,10.57
2022-11-19T11:53:08.188Z,10.98
2022-11-19T11:55:34.279Z,10.63
2022-11-19T11:58:02.936Z,11.02
2022-11-19T12:00:37.859Z,10.65
2022-11-19T12:03:08.488Z,11.68
2022-11-19T12:05:57.867Z,11.93
2022-11-19T12:08:58.929Z,11.60
2022-11-19T12:11:53.603Z,10.65
2022-11-19T12:14:38.212Z,10.63
2022-11-19T12:17:17.810Z,9.60
2022-11-19T12:20:15.808Z,9.63
2022-11-19T12:22:59.871Z,9.57
2022-11-19T12:25:31.576Z,11.07
2022-11-19T12:28:28.172Z,9.90
2022-11-19T12:31:19.464Z,9.95
2022-11-19T12:34:00.713Z,9.93
2022-11-19T12:36:56.073Z,9.98
2022-11-19T12:39:46.299Z,9.60
2022-11-19T12:42:30.929Z,9.13
2022-11-19T12:44:56.917Z,10.23
2022-11-19T12:47:50.714Z,10.18
2022-11-19T12:50:59.834Z,9.95
2022-11-19T12:53:43.054Z,10.30
2022-11-19T12:56:26.874Z,10.63
2022-11-19T12:59:07.701Z,9.63
2022-11-19T13:01:37.660Z,10.93
2022-11-19T13:04:16.604Z,11.32
2022-11-19T13:07:08.700Z,10.95
2022-11-19T13:10:01.883Z,11.05
2022-11-19T13:12:43.702Z,10.55
2022-11-19T13:15:35.613Z,11.30
2022-11-19T13:18:04.646Z,11.90
2022-11-19T13:20:44.120Z,11.50
2022-11-19T13:23:18.462Z,11.07
2022-11-19T13:25:55.091Z,10.48
2022-11-19T13:29:19.494Z,10.68
2022-11-19T13:31:54.632Z,10.30
2022-11-19T13:34:26.506Z,11.13
2022-11-19T13:37:05.939Z,9.65
2022-11-19T13:39:39.037Z,9.18
2022-11-19T13:42:25.438Z,9.10
2022-11-19T13:44:51.752Z,9.43
2022-11-19T13:47:41.180Z,8.82
2022-11-19T13:50:19.543Z,8.75
2022-11-19T13:53:06.593Z,9.00
2022-11-19T13:55:37.224Z,8.38
2022-11-19T13:58:10.979Z,8.75
2022-11-19T14:00:37.505Z,8.75
2022-11-19T14:03:25.012Z,8.88
2022-11-19T14:06:01.329Z,7.68
2022-11-19T14:08:44.820Z,7.80
2022-11-19T14:11:23.348Z,8.90
2022-11-19T14:13:49.120Z,9.15
2022-11-19T14:16:55.259Z,8.40
2022-11-19T14:19:21.202Z,7.85
2022-11-19T14:22:08.853Z,7.78
2022-11-19T14:24:53.208Z,8.45
2022-11-19T14:27:27.471Z,8.05
2022-11-19T14:29:59.856Z,7.88
2022-11-19T14:32:47.634Z,9.38
2022-11-19T14:35:28.922Z,8.00
2022-11-19T14:38:18.385Z,8.40
2022-11-19T14:40:44.710Z,9.00
2022-11-19T14:43:28.943Z,8.95
2022-11-19T14:46:09.663Z,9.43
2022-11-19T14:48:38.292Z,8.25
2022-11-19T14:51:30.313Z,8.48
2022-11-19T14:54:04.825Z,8.15
2022-11-19T14:56:33.492Z,8.90
2022-11-19T14:59:09.311Z,10.05
2022-11-19T15:01:50.421Z,8.48
2022-11-19T15:04:21.898Z,10.02
2022-11-19T15:06:48.283Z,8.95
2022-11-19T15:09:50.163Z,8.82
2022-11-19T15:12:19.364Z,9.82
2022-11-19T15:15:04.528Z,9.63
2022-11-19T15:17:34.854Z,8.47
2022-11-19T15:20:25.341Z,8.55
2022-11-19T15:23:06.328Z,8.88
2022-11-19T15:25:54.517Z,7.85
2022-11-19T15:29:03.827Z,9.93
2022-11-19T15:31:45.367Z,8.05
2022-11-19T15:34:56.238Z,8.25
2022-11-19T15:37:38.696Z,8.68
2022-11-19T15:40:10.682Z,8.75
2022-11-19T15:42:45.420Z,8.43
2022-11-19T15:45:18.011Z,8.50
2022-11-19T15:47:49.664Z,8.55
2022-11-19T15:50:21.515Z,8.63
2022-11-19T15:53:01.197Z,9.50
2022-11-19T15:55:30.213Z,10.40
2022-11-19T15:58:10.162Z,10.70
2022-11-19T16:00:45.214Z,9.13
2022-11-19T16:03:12.165Z,8.75
2022-11-19T16:05:39.154Z,9.73
2022-11-19T16:08:07.904Z,8.30
2022-11-19T16:10:38.863Z,8.32
2022-11-19T16:13:44.132Z,7.93
2022-11-19T16:16:44.945Z,8.55
2022-11-19T16:19:15.733Z,8.55
2022-11-19T16:21:44.354Z,8.02
2022-11-19T16:24:32.263Z,7.63
2022-11-19T16:27:00.349Z,6.97
2022-11-19T16:29:26.445Z,6.63
2022-11-19T16:31:55.741Z,6.75
2022-11-19T16:34:24.361Z,7.43
2022-11-19T16:36:51.692Z,6.90
2022-11-19T16:39:23.071Z,7.45
2022-11-19T16:42:15.719Z,7.28
2022-11-19T16:44:46.779Z,7.18
2022-11-19T16:47:38.249Z,9.05
2022-11-19T16:50:05.637Z,6.88
2022-11-19T16:52:37.295Z,7.85
2022-11-19T16:55:18.079Z,7.65
2022-11-19T16:57:52.612Z,7.15
2022-11-19T17:00:21.571Z,7.55
2022-11-19T17:02:48.928Z,7.10
2022-11-19T17:05:21.094Z,8.45
2022-11-19T17:07:49.779Z,7.90
2022-11-19T17:10:18.733Z,8.52
2022-11-19T17:12:51.815Z,8.48
2022-11-19T17:15:33.305Z,7.82
2022-11-19T17:18:19.749Z,8.15
2022-11-19T17:21:24.525Z,8.52
2022-11-19T17:23:51.203Z,9.23
2022-11-19T17:26:21.643Z,8.23
2022-11-19T17:28:50.543Z,8.65
2022-11-19T17:31:25.599Z,8.80
2022-11-19T17:33:54.988Z,11.13
2022-11-19T17:36:21.595Z,9.73
2022-11-19T17:38:48.269Z,9.95
2022-11-19T17:41:38.182Z,9.50
2022-11-19T17:44:27.319Z,9.95
2022-11-19T17:46:53.162Z,9.73
2022-11-19T17:49:18.923Z,9.30
2022-11-19T17:51:44.713Z,8.88
2022-11-19T17:54:10.904Z,11.02
2022-11-19T17:56:36.788Z,10.85
2022-11-19T17:59:02.732Z,10.82
2022-11-19T18:01:28.785Z,10.77
2022-11-19T18:03:54.664Z,9.45
2022-11-19T18:06:20.485Z,10.25
2022-11-19T18:08:46.621Z,9.80
2022-11-19T18:11:18.848Z,10.50
2022-11-19T18:13:45.874Z,10.90
2022-11-19T18:16:15.173Z,12.23
2022-11-19T18:18:41.057Z,11.73
2022-11-19T18:21:12.562Z,11.35
2022-11-19T18:23:40.114Z,13.55
2022-11-19T18:26:16.299Z,13.20
2022-11-19T18:28:45.078Z,15.75
2022-11-19T18:31:26.000Z,15.27
2022-11-19T18:33:52.491Z,16.67
2022-11-19T18:36:18.355Z,15.85
2022-11-19T18:38:44.470Z,14.85
2022-11-19T18:41:13.718Z,16.63
2022-11-19T18:43:58.727Z,15.27
2022-11-19T18:46:25.384Z,13.40
2022-11-19T18:48:52.889Z,13.65
2022-11-19T18:51:19.387Z,14.70
2022-11-19T18:53:45.251Z,16.50
2022-11-19T18:56:15.410Z,15.82
2022-11-19T18:58:41.994Z,16.67
2022-11-19T19:01:08.394Z,14.80
2022-11-19T19:03:34.974Z,15.02
2022-11-19T19:06:06.076Z,16.23
2022-11-19T19:08:32.808Z,14.93
2022-11-19T19:11:17.954Z,15.60
2022-11-19T19:13:45.385Z,15.30
2022-11-19T19:16:12.690Z,14.40
2022-11-19T19:18:39.963Z,13.68
2022-11-19T19:21:20.321Z,13.35
2022-11-19T19:23:46.675Z,13.90
2022-11-19T19:26:15.505Z,13.27
2022-11-19T19:28:42.423Z,14.20
2022-11-19T19:31:11.386Z,16.63
2022-11-19T19:33:40.898Z,16.98
2022-11-19T19:36:07.105Z,14.95
2022-11-19T19:38:32.945Z,15.32
2022-11-19T19:41:06.834Z,13.95
2022-11-19T19:43:32.924Z,13.93
2022-11-19T19:46:06.689Z,14.63
2022-11-19T19:48:32.782Z,13.77
2022-11-19T19:50:58.652Z,16.17
2022-11-19T19:53:24.473Z,13.48
2022-11-19T19:55:50.389Z,12.07
2022-11-19T19:58:16.250Z,11.73
2022-11-19T20:00:42.105Z,11.30
2022-11-19T20:03:08.030Z,10.68
2022-11-19T20:05:33.885Z,10.63
2022-11-19T20:08:00.001Z,11.63
2022-11-19T20:10:25.871Z,11.43
2022-11-19T20:13:10.155Z,10.38
2022-11-19T20:15:36.065Z,11.43
2022-11-19T20:18:01.864Z,11.48
2022-11-19T20:20:27.701Z,11.07
2022-11-19T20:22:53.548Z,11.25
2022-11-19T20:25:19.434Z,10.57
2022-11-19T20:27:45.283Z,10.45
2022-11-19T20:30:11.722Z,10.55
2022-11-19T20:32:37.511Z,10.13
2022-11-19T20:35:03.905Z,10.98
2022-11-19T20:37:29.688Z,10.98
2022-11-19T20:39:55.903Z,10.30
2022-11-19T20:42:40.123Z,10.63
2022-11-19T20:45:07.550Z,10.77
2022-11-19T20:47:33.485Z,10.13
2022-11-19T20:49:59.386Z,10.98
2022-11-19T20:52:25.188Z,10.75
2022-11-19T20:54:51.302Z,11.02
2022-11-19T20:57:18.139Z,16.13
2022-11-19T20:59:44.437Z,11.95
2022-11-19T21:02:10.428Z,10.65
2022-11-19T21:04:36.735Z,9.98
2022-11-19T21:07:03.827Z,10.27
2022-11-19T21:09:29.774Z,10.40
2022-11-19T21:11:55.622Z,10.93
2022-11-19T21:14:22.259Z,10.23
2022-11-19T21:16:48.783Z,9.75
2022-11-19T21:19:15.401Z,11.27
2022-11-19T21:21:42.646Z,10.52
2022-11-19T21:24:09.195Z,11.13
2022-11-19T21:26:34.997Z,12.00
2022-11-19T21:29:00.987Z,11.63
2022-11-19T21:31:43.490Z,11.60
2022-11-19T21:34:17.963Z,12.15
2022-11-19T21:36:45.193Z,12.68
2022-11-19T21:39:15.508Z,14.35
2022-11-19T21:41:42.522Z,13.93
2022-11-19T21:44:08.597Z,13.77
2022-11-19T21:46:35.542Z,14.13
2022-11-19T21:49:02.197Z,14.18
2022-11-19T21:51:28.198Z,14.25
2022-11-19T21:53:54.931Z,14.32
2022-11-19T21:56:23.678Z,13.13
2022-11-19T21:58:49.730Z,12.55
2022-11-19T22:01:15.611Z,11.70
2022-11-19T22:03:41.642Z,12.68
2022-11-19T22:06:10.128Z,10.95
2022-11-19T22:08:38.881Z,10.98
2022-11-19T22:11:25.853Z,10.30
2022-11-19T22:13:52.838Z,11.32
2022-11-19T22:16:18.841Z,11.05
2022-11-19T22:18:45.453Z,11.43
2022-11-19T22:21:11.272Z,11.48
2022-11-19T22:23:37.283Z,11.48
2022-11-19T22:26:08.471Z,11.35
2022-11-19T22:28:34.659Z,10.02
2022-11-19T22:31:00.730Z,9.98
2022-11-19T22:33:31.034Z,9.25
2022-11-19T22:35:58.675Z,9.70
2022-11-19T22:38:24.959Z,9.82
2022-11-19T22:40:50.731Z,10.38
2022-11-19T22:43:20.290Z,10.60
2022-11-19T22:45:48.482Z,10.07
2022-11-19T22:48:14.334Z,10.80
2022-11-19T22:50:41.349Z,10.10
2022-11-19T22:53:07.817Z,9.05
2022-11-19T22:55:34.873Z,9.38
2022-11-19T22:58:00.966Z,9.27
2022-11-19T23:00:42.934Z,9.38
2022-11-19T23:03:09.710Z,9.68
2022-11-19T23:05:37.217Z,9.95
2022-11-19T23:08:05.630Z,9.32
2022-11-19T23:10:34.800Z,8.48
2022-11-19T23:13:20.212Z,9.40
2022-11-19T23:16:12.459Z,8.43
2022-11-19T23:18:44.950Z,8.10
2022-11-19T23:21:14.198Z,7.03
2022-11-19T23:23:40.265Z,7.75
2022-11-19T23:26:07.928Z,6.90
2022-11-19T23:28:35.447Z,7.68
2022-11-19T23:31:07.472Z,7.97
2022-11-19T23:33:33.323Z,8.55
2022-11-19T23:36:04.932Z,7.65
2022-11-19T23:38:31.271Z,8.05
2022-11-19T23:40:58.753Z,8.18
2022-11-19T23:43:24.585Z,8.05
2022-11-19T23:45:50.327Z,8.30
2022-11-19T23:48:16.772Z,8.23
2022-11-19T23:50:42.628Z,8.82
2022-11-19T23:53:08.506Z,7.82
2022-11-19T23:55:34.696Z,8.32
2022-11-19T23:58:00.444Z,7.85
